createdAt,value
2018-12-14T00:00:19.612Z,3.00
2018-12-14T00:02:47.106Z,3.00
2018-12-14T00:05:14.525Z,3.00
2018-12-14T00:07:41.933Z,3.10
2018-12-14T00:10:09.572Z,3.10
2018-12-14T00:12:37.009Z,3.10
2018-12-14T00:15:05.158Z,3.10
2018-12-14T00:17:32.646Z,3.00
2018-12-14T00:20:00.046Z,3.00
2018-12-14T00:22:27.461Z,3.00
2018-12-14T00:24:54.869Z,3.00
2018-12-14T00:27:22.506Z,3.10
2018-12-14T00:29:50.042Z,3.10
2018-12-14T00:32:17.770Z,3.00
2018-12-14T00:34:45.193Z,3.00
2018-12-14T00:37:12.610Z,3.00
2018-12-14T00:39:40.090Z,3.00
2018-12-14T00:42:07.521Z,3.00
2018-12-14T00:44:34.933Z,3.10
2018-12-14T00:47:02.337Z,3.00
2018-12-14T00:49:29.757Z,2.90
2018-12-14T00:51:57.233Z,2.90
2018-12-14T00:54:24.706Z,2.90
2018-12-14T00:56:52.146Z,2.90
2018-12-14T00:59:19.613Z,2.90
2018-12-14T01:01:47.053Z,3.00
2018-12-14T01:04:14.569Z,3.00
2018-12-14T01:06:42.072Z,3.10
2018-12-14T01:09:09.482Z,3.10
2018-12-14T01:11:37.014Z,3.10
2018-12-14T01:14:04.487Z,3.10
2018-12-14T01:16:31.986Z,3.20
2018-12-14T01:18:59.414Z,3.20
2018-12-14T01:21:26.902Z,3.20
2018-12-14T01:23:54.309Z,3.20
2018-12-14T01:26:21.819Z,3.20
2018-12-14T01:28:49.390Z,3.20
2018-12-14T01:31:16.826Z,3.10
2018-12-14T01:33:44.249Z,3.10
2018-12-14T01:36:11.714Z,3.10
2018-12-14T01:38:39.175Z,3.10
2018-12-14T01:41:06.673Z,3.00
2018-12-14T01:43:34.163Z,3.10
2018-12-14T01:46:01.684Z,3.10
2018-12-14T01:48:29.173Z,3.10
2018-12-14T01:50:56.665Z,3.10
2018-12-14T01:53:24.095Z,3.10
2018-12-14T01:55:51.490Z,3.10
2018-12-14T01:58:18.957Z,3.10
2018-12-14T02:00:46.363Z,3.10
2018-12-14T02:03:13.849Z,3.10
2018-12-14T02:05:41.330Z,3.10
2018-12-14T02:08:08.840Z,3.10
2018-12-14T02:10:36.283Z,3.10
2018-12-14T02:13:03.780Z,3.10
2018-12-14T02:15:31.263Z,3.00
2018-12-14T02:17:58.741Z,3.00
2018-12-14T02:20:26.182Z,3.00
2018-12-14T02:22:53.665Z,3.00
2018-12-14T02:25:21.158Z,3.00
2018-12-14T02:27:48.566Z,3.10
2018-12-14T02:30:27.809Z,3.10
2018-12-14T02:32:55.222Z,3.10
2018-12-14T02:35:22.618Z,3.10
2018-12-14T02:37:50.315Z,3.10
2018-12-14T02:40:17.798Z,3.10
2018-12-14T02:42:45.306Z,3.00
2018-12-14T02:45:12.733Z,3.00
2018-12-14T02:47:40.197Z,3.00
2018-12-14T02:50:07.702Z,3.00
2018-12-14T02:52:35.198Z,3.00
2018-12-14T02:55:02.833Z,3.00
2018-12-14T02:57:30.303Z,3.00
2018-12-14T02:59:57.885Z,3.00
2018-12-14T03:02:25.370Z,3.00
2018-12-14T03:04:52.920Z,3.00
2018-12-14T03:07:20.341Z,3.00
2018-12-14T03:09:47.773Z,3.00
2018-12-14T03:12:15.194Z,3.10
2018-12-14T03:14:42.705Z,3.00
2018-12-14T03:17:10.131Z,3.10
2018-12-14T03:19:37.540Z,3.10
2018-12-14T03:22:05.002Z,3.10
2018-12-14T03:24:32.433Z,3.00
2018-12-14T03:26:59.831Z,3.10
2018-12-14T03:29:27.342Z,3.10
2018-12-14T03:31:54.763Z,3.10
2018-12-14T03:34:22.237Z,3.10
2018-12-14T03:36:49.730Z,3.10
2018-12-14T03:39:17.187Z,3.10
2018-12-14T03:41:44.702Z,3.10
2018-12-14T03:44:12.140Z,3.10
2018-12-14T03:46:39.712Z,3.10
2018-12-14T03:49:07.125Z,3.00
2018-12-14T03:51:34.616Z,3.00
2018-12-14T03:54:02.122Z,3.00
2018-12-14T03:56:29.594Z,3.00
2018-12-14T03:58:57.082Z,3.00
2018-12-14T04:01:24.630Z,2.90
2018-12-14T04:03:52.050Z,2.90
2018-12-14T04:06:19.572Z,3.00
2018-12-14T04:08:47.039Z,3.00
2018-12-14T04:11:14.533Z,3.00
2018-12-14T04:13:41.934Z,2.90
2018-12-14T04:16:09.457Z,3.00
2018-12-14T04:18:36.882Z,2.90
2018-12-14T04:21:04.331Z,2.90
2018-12-14T04:23:31.806Z,2.90
2018-12-14T04:25:59.246Z,2.90
2018-12-14T04:28:26.661Z,2.90
2018-12-14T04:30:54.162Z,2.90
2018-12-14T04:33:21.559Z,2.90
2018-12-14T04:35:49.085Z,2.90
2018-12-14T04:38:16.514Z,2.90
2018-12-14T04:40:43.980Z,3.00
2018-12-14T04:43:11.462Z,2.90
2018-12-14T04:45:38.959Z,2.90
2018-12-14T04:48:06.437Z,2.90
2018-12-14T04:50:33.867Z,2.90
2018-12-14T04:53:01.357Z,2.90
2018-12-14T04:55:28.920Z,2.80
2018-12-14T04:57:56.349Z,2.80
2018-12-14T05:00:23.837Z,2.90
2018-12-14T05:02:51.325Z,2.90
2018-12-14T05:05:18.826Z,2.90
2018-12-14T05:07:46.241Z,2.90
2018-12-14T05:10:13.670Z,2.90
2018-12-14T05:12:41.074Z,2.90
2018-12-14T05:15:08.683Z,2.90
2018-12-14T05:17:36.195Z,2.90
2018-12-14T05:20:04.806Z,2.90
2018-12-14T05:22:32.250Z,2.90
2018-12-14T05:24:59.725Z,2.80
2018-12-14T05:27:27.166Z,2.90
2018-12-14T05:29:54.878Z,2.80
2018-12-14T05:32:22.461Z,2.70
2018-12-14T05:34:49.938Z,2.60
2018-12-14T05:37:17.334Z,2.70
2018-12-14T05:39:44.846Z,2.70
2018-12-14T05:42:12.262Z,2.60
2018-12-14T05:44:39.725Z,2.60
2018-12-14T05:47:07.213Z,2.60
2018-12-14T05:49:34.625Z,2.60
2018-12-14T05:52:02.110Z,2.70
2018-12-14T05:54:29.626Z,2.70
2018-12-14T05:56:57.021Z,2.70
2018-12-14T05:59:24.540Z,2.70
2018-12-14T06:01:51.953Z,2.70
2018-12-14T06:04:19.370Z,2.70
2018-12-14T06:06:46.786Z,2.70
2018-12-14T06:09:14.936Z,2.60
2018-12-14T06:11:42.589Z,2.60
2018-12-14T06:14:09.998Z,2.60
2018-12-14T06:16:37.441Z,2.60
2018-12-14T06:19:04.865Z,2.60
2018-12-14T06:21:32.333Z,2.60
2018-12-14T06:23:59.741Z,2.60
2018-12-14T06:26:27.247Z,2.50
2018-12-14T06:28:54.790Z,2.50
2018-12-14T06:31:22.258Z,2.50
2018-12-14T06:33:49.856Z,2.50
2018-12-14T06:36:17.326Z,2.60
2018-12-14T06:38:44.745Z,2.60
2018-12-14T06:41:12.250Z,2.60
2018-12-14T06:43:39.718Z,2.50
2018-12-14T06:46:07.199Z,2.40
2018-12-14T06:48:34.610Z,2.50
2018-12-14T06:51:02.331Z,2.50
2018-12-14T06:53:29.803Z,2.50
2018-12-14T06:55:57.318Z,2.50
2018-12-14T06:58:24.742Z,2.50
2018-12-14T07:00:52.219Z,2.50
2018-12-14T07:03:19.641Z,2.50
2018-12-14T07:05:47.141Z,2.50
2018-12-14T07:08:14.546Z,2.50
2018-12-14T07:10:42.019Z,2.50
2018-12-14T07:13:09.415Z,2.60
2018-12-14T07:15:36.909Z,2.60
2018-12-14T07:18:04.367Z,2.60
2018-12-14T07:20:31.788Z,2.70
2018-12-14T07:22:59.254Z,2.70
2018-12-14T07:25:26.770Z,2.60
2018-12-14T07:27:54.377Z,2.70
2018-12-14T07:30:22.270Z,2.70
2018-12-14T07:32:49.670Z,2.70
2018-12-14T07:35:17.095Z,2.60
2018-12-14T07:37:44.575Z,2.70
2018-12-14T07:40:11.966Z,2.70
2018-12-14T07:42:39.405Z,2.70
2018-12-14T07:45:07.015Z,2.70
2018-12-14T07:47:34.510Z,2.70
2018-12-14T07:50:02.023Z,2.60
2018-12-14T07:52:29.598Z,2.70
2018-12-14T07:54:57.063Z,2.80
2018-12-14T07:57:24.470Z,2.80
2018-12-14T07:59:51.872Z,2.70
2018-12-14T08:02:19.381Z,2.70
2018-12-14T08:04:46.814Z,2.80
2018-12-14T08:07:14.523Z,2.80
2018-12-14T08:09:42.009Z,2.70
2018-12-14T08:12:09.522Z,2.80
2018-12-14T08:14:37.005Z,2.80
2018-12-14T08:17:04.410Z,2.70
2018-12-14T08:19:31.826Z,2.70
2018-12-14T08:21:59.226Z,2.80
2018-12-14T08:24:26.632Z,2.80
2018-12-14T08:26:54.140Z,2.90
2018-12-14T08:29:21.538Z,2.90
2018-12-14T08:31:49.015Z,3.00
2018-12-14T08:34:16.449Z,3.00
2018-12-14T08:36:43.963Z,2.90
2018-12-14T08:39:11.454Z,2.90
2018-12-14T08:41:38.863Z,3.00
2018-12-14T08:44:06.362Z,2.90
2018-12-14T08:46:33.843Z,2.90
2018-12-14T08:49:01.340Z,2.90
2018-12-14T08:51:28.830Z,3.00
2018-12-14T08:53:56.243Z,3.00
2018-12-14T08:56:23.682Z,2.90
2018-12-14T08:58:51.118Z,3.00
2018-12-14T09:01:18.562Z,3.10
2018-12-14T09:03:46.062Z,3.10
2018-12-14T09:06:13.478Z,3.10
2018-12-14T09:08:40.902Z,3.00
2018-12-14T09:11:08.337Z,2.90
2018-12-14T09:13:35.748Z,2.90
2018-12-14T09:16:03.242Z,2.90
2018-12-14T09:18:30.727Z,2.90
2018-12-14T09:21:01.084Z,2.90
2018-12-14T09:23:27.721Z,3.00
2018-12-14T09:25:55.159Z,3.00
2018-12-14T09:28:22.581Z,2.90
2018-12-14T09:30:50.062Z,3.00
2018-12-14T09:33:17.626Z,2.90
2018-12-14T09:35:45.118Z,2.90
2018-12-14T09:38:12.666Z,2.90
2018-12-14T09:40:40.081Z,2.90
2018-12-14T09:43:07.486Z,2.90
2018-12-14T09:45:34.970Z,3.00
2018-12-14T09:48:02.374Z,3.00
2018-12-14T09:50:29.854Z,3.10
2018-12-14T09:52:57.384Z,3.20
2018-12-14T09:55:24.866Z,3.10
2018-12-14T09:57:52.285Z,3.10
2018-12-14T10:00:19.779Z,3.00
2018-12-14T10:02:47.174Z,3.00
2018-12-14T10:05:14.637Z,3.00
2018-12-14T10:07:46.820Z,2.90
2018-12-14T10:10:11.532Z,3.00
2018-12-14T10:12:38.966Z,3.00
2018-12-14T10:15:06.685Z,2.90
2018-12-14T10:17:34.121Z,2.90
2018-12-14T10:20:01.606Z,2.90
2018-12-14T10:22:29.073Z,3.00
2018-12-14T10:24:56.482Z,3.10
2018-12-14T10:27:23.915Z,3.30
2018-12-14T10:29:51.322Z,3.30
2018-12-14T10:32:18.790Z,3.30
2018-12-14T10:34:46.323Z,3.30
2018-12-14T10:37:13.794Z,3.20
2018-12-14T10:39:41.174Z,3.30
2018-12-14T10:42:08.674Z,3.40
2018-12-14T10:44:36.059Z,3.50
2018-12-14T10:47:03.563Z,3.50
2018-12-14T10:49:31.143Z,3.50
2018-12-14T10:51:58.774Z,3.40
2018-12-14T10:54:26.491Z,3.50
2018-12-14T10:56:53.909Z,3.50
2018-12-14T10:59:21.346Z,3.40
2018-12-14T11:01:54.366Z,3.40
2018-12-14T11:04:21.906Z,3.40
2018-12-14T11:06:49.307Z,3.50
2018-12-14T11:09:16.798Z,3.60
2018-12-14T11:11:44.443Z,3.50
2018-12-14T11:14:14.089Z,3.50
2018-12-14T11:16:41.330Z,3.40
2018-12-14T11:19:08.754Z,3.30
2018-12-14T11:21:36.258Z,3.40
2018-12-14T11:24:03.774Z,3.20
2018-12-14T11:26:31.294Z,3.10
2018-12-14T11:28:58.770Z,3.20
2018-12-14T11:31:26.290Z,3.30
2018-12-14T11:33:54.615Z,3.30
2018-12-14T11:36:22.057Z,3.40
2018-12-14T11:38:49.529Z,3.40
2018-12-14T11:41:18.545Z,3.40
2018-12-14T11:43:46.241Z,3.40
2018-12-14T11:46:13.714Z,3.50
2018-12-14T11:48:41.282Z,3.60
2018-12-14T11:51:09.985Z,3.60
2018-12-14T11:53:37.389Z,3.50
2018-12-14T11:56:04.897Z,3.40
2018-12-14T11:58:32.373Z,3.30
2018-12-14T12:00:59.863Z,3.20
2018-12-14T12:03:27.435Z,3.10
2018-12-14T12:05:54.873Z,3.20
2018-12-14T12:08:22.374Z,3.20
2018-12-14T12:10:49.869Z,3.20
2018-12-14T12:13:17.335Z,3.30
2018-12-14T12:15:44.809Z,3.40
2018-12-14T12:18:12.260Z,3.40
2018-12-14T12:20:39.645Z,3.30
2018-12-14T12:23:07.081Z,3.30
2018-12-14T12:25:34.668Z,3.30
2018-12-14T12:28:02.132Z,3.20
2018-12-14T12:30:29.621Z,3.30
2018-12-14T12:32:57.042Z,3.30
2018-12-14T12:35:24.527Z,3.40
2018-12-14T12:37:52.124Z,3.40
2018-12-14T12:40:19.491Z,3.40
2018-12-14T12:42:46.959Z,3.50
2018-12-14T12:45:14.534Z,3.40
2018-12-14T12:47:42.101Z,3.50
2018-12-14T12:50:09.522Z,3.50
2018-12-14T12:52:36.938Z,3.40
2018-12-14T12:55:04.720Z,3.30
2018-12-14T12:57:32.206Z,3.20
2018-12-14T12:59:59.764Z,3.30
2018-12-14T13:02:27.229Z,3.20
2018-12-14T13:04:55.025Z,3.10
2018-12-14T13:07:22.430Z,3.10
2018-12-14T13:09:49.854Z,3.20
2018-12-14T13:12:17.345Z,3.20
2018-12-14T13:14:44.904Z,3.10
2018-12-14T13:17:12.371Z,3.10
2018-12-14T13:19:39.857Z,3.10
2018-12-14T13:22:07.281Z,3.00
2018-12-14T13:24:34.701Z,3.00
2018-12-14T13:27:02.234Z,3.10
2018-12-14T13:29:29.701Z,3.00
2018-12-14T13:31:57.098Z,3.10
2018-12-14T13:34:24.651Z,3.20
2018-12-14T13:36:52.050Z,3.20
2018-12-14T13:39:20.292Z,3.20
2018-12-14T13:41:47.800Z,3.20
2018-12-14T13:44:15.277Z,3.10
2018-12-14T13:46:42.672Z,3.20
2018-12-14T13:49:10.194Z,3.20
2018-12-14T13:51:37.664Z,3.30
2018-12-14T13:54:05.162Z,3.30
2018-12-14T13:56:32.606Z,3.30
2018-12-14T13:59:00.171Z,3.30
2018-12-14T14:01:27.654Z,3.20
2018-12-14T14:03:55.116Z,3.10
2018-12-14T14:06:22.482Z,3.00
2018-12-14T14:08:49.882Z,3.00
2018-12-14T14:11:17.346Z,3.00
2018-12-14T14:13:44.897Z,3.00
2018-12-14T14:16:12.406Z,3.10
2018-12-14T14:18:39.878Z,3.20
2018-12-14T14:21:07.344Z,3.00
2018-12-14T14:23:34.790Z,2.90
2018-12-14T14:26:02.353Z,2.70
2018-12-14T14:28:29.845Z,2.60
2018-12-14T14:30:57.238Z,2.60
2018-12-14T14:33:24.655Z,2.50
2018-12-14T14:35:52.054Z,2.50
2018-12-14T14:38:19.490Z,2.50
2018-12-14T14:40:46.902Z,2.40
2018-12-14T14:43:14.378Z,2.30
2018-12-14T14:45:41.901Z,2.30
2018-12-14T14:48:09.377Z,2.40
2018-12-14T14:50:36.857Z,2.40
2018-12-14T14:53:04.416Z,2.50
2018-12-14T14:55:31.930Z,2.60
2018-12-14T14:57:59.525Z,2.80
2018-12-14T15:00:28.937Z,2.80
2018-12-14T15:02:56.613Z,2.80
2018-12-14T15:05:24.018Z,2.70
2018-12-14T15:07:51.405Z,2.70
2018-12-14T15:10:18.851Z,2.80
2018-12-14T15:12:46.326Z,2.80
2018-12-14T15:15:13.803Z,2.90
2018-12-14T15:17:41.289Z,2.70
2018-12-14T15:20:08.745Z,2.80
2018-12-14T15:22:36.435Z,2.70
2018-12-14T15:25:03.910Z,2.70
2018-12-14T15:27:31.373Z,2.70
2018-12-14T15:29:58.862Z,2.70
2018-12-14T15:32:26.565Z,2.60
2018-12-14T15:34:53.971Z,2.50
2018-12-14T15:37:21.449Z,2.50
2018-12-14T15:39:48.877Z,2.50
2018-12-14T15:42:16.285Z,2.60
2018-12-14T15:44:43.750Z,2.70
2018-12-14T15:47:11.246Z,2.60
2018-12-14T15:49:38.754Z,2.50
2018-12-14T15:52:06.230Z,2.40
2018-12-14T15:54:33.637Z,2.40
2018-12-14T15:57:01.097Z,2.30
2018-12-14T15:59:28.574Z,2.40
2018-12-14T16:01:56.147Z,2.40
2018-12-14T16:04:23.642Z,2.40
2018-12-14T16:06:51.186Z,2.30
2018-12-14T16:09:18.659Z,2.30
2018-12-14T16:11:46.159Z,2.40
2018-12-14T16:14:13.593Z,2.40
2018-12-14T16:16:41.114Z,2.50
2018-12-14T16:19:08.572Z,2.60
2018-12-14T16:21:36.116Z,2.60
2018-12-14T16:24:03.626Z,2.70
2018-12-14T16:26:31.120Z,2.70
2018-12-14T16:28:58.606Z,2.70
2018-12-14T16:31:26.127Z,2.70
2018-12-14T16:33:53.670Z,2.70
2018-12-14T16:36:21.077Z,2.70
2018-12-14T16:38:48.494Z,2.60
2018-12-14T16:41:15.979Z,2.70
2018-12-14T16:43:43.553Z,2.70
2018-12-14T16:46:11.018Z,2.80
2018-12-14T16:48:38.441Z,2.80
2018-12-14T16:51:05.859Z,2.80
2018-12-14T16:53:35.242Z,2.80
2018-12-14T16:56:02.848Z,2.80
2018-12-14T16:58:30.362Z,2.70
2018-12-14T17:00:57.778Z,2.70
2018-12-14T17:03:25.386Z,2.70
2018-12-14T17:05:52.831Z,2.80
2018-12-14T17:08:20.258Z,2.70
2018-12-14T17:10:47.749Z,2.70
2018-12-14T17:13:15.810Z,2.60
2018-12-14T17:15:43.429Z,2.60
2018-12-14T17:18:11.006Z,2.70
2018-12-14T17:20:38.493Z,2.70
2018-12-14T17:23:05.909Z,2.70
2018-12-14T17:25:33.401Z,2.70
2018-12-14T17:28:00.890Z,2.70
2018-12-14T17:30:28.360Z,2.70
2018-12-14T17:32:55.845Z,2.70
2018-12-14T17:35:23.309Z,2.70
2018-12-14T17:37:50.763Z,2.70
2018-12-14T17:40:18.238Z,2.70
2018-12-14T17:42:46.035Z,2.70
2018-12-14T17:45:13.504Z,2.60
2018-12-14T17:47:41.054Z,2.40
2018-12-14T17:50:08.479Z,2.40
2018-12-14T17:52:35.949Z,2.50
2018-12-14T17:55:03.439Z,2.40
2018-12-14T17:57:30.827Z,2.50
2018-12-14T17:59:58.303Z,2.50
2018-12-14T18:02:25.787Z,2.50
2018-12-14T18:04:53.346Z,2.40
2018-12-14T18:07:20.757Z,2.40
2018-12-14T18:09:48.190Z,2.40
2018-12-14T18:12:15.754Z,2.50
2018-12-14T18:14:43.238Z,2.50
2018-12-14T18:17:10.657Z,2.50
2018-12-14T18:19:38.141Z,2.50
2018-12-14T18:22:05.629Z,2.60
2018-12-14T18:24:33.054Z,2.60
2018-12-14T18:27:00.475Z,2.60
2018-12-14T18:29:28.047Z,2.60
2018-12-14T18:31:55.530Z,2.70
2018-12-14T18:34:23.038Z,2.60
2018-12-14T18:36:50.519Z,2.60
2018-12-14T18:39:18.015Z,2.60
2018-12-14T18:41:45.442Z,2.60
2018-12-14T18:44:12.870Z,2.60
2018-12-14T18:46:40.359Z,2.50
2018-12-14T18:49:07.844Z,2.50
2018-12-14T18:51:35.382Z,2.50
2018-12-14T18:54:02.851Z,2.50
2018-12-14T18:56:30.289Z,2.60
2018-12-14T18:58:58.234Z,2.60
2018-12-14T19:01:25.674Z,2.60
2018-12-14T19:03:54.202Z,2.60
2018-12-14T19:06:21.692Z,2.70
2018-12-14T19:08:49.086Z,2.70
2018-12-14T19:11:16.512Z,2.70
2018-12-14T19:13:44.054Z,2.70
2018-12-14T19:16:11.521Z,2.70
2018-12-14T19:18:38.961Z,2.70
2018-12-14T19:21:06.565Z,2.70
2018-12-14T19:23:34.031Z,2.70
2018-12-14T19:26:01.508Z,2.70
2018-12-14T19:28:29.013Z,2.70
2018-12-14T19:30:56.549Z,2.70
2018-12-14T19:33:24.039Z,2.70
2018-12-14T19:35:51.574Z,2.70
2018-12-14T19:38:19.062Z,2.80
2018-12-14T19:40:46.546Z,2.80
2018-12-14T19:43:13.949Z,2.80
2018-12-14T19:45:41.475Z,2.70
2018-12-14T19:48:08.970Z,2.70
2018-12-14T19:50:36.434Z,2.80
2018-12-14T19:53:03.983Z,2.70
2018-12-14T19:55:31.469Z,2.70
2018-12-14T19:57:58.874Z,2.70
2018-12-14T20:00:26.357Z,2.70
2018-12-14T20:02:53.863Z,2.70
2018-12-14T20:05:21.357Z,2.70
2018-12-14T20:07:48.911Z,2.70
2018-12-14T20:10:16.420Z,2.70
2018-12-14T20:12:43.922Z,2.70
2018-12-14T20:15:11.435Z,2.70
2018-12-14T20:17:38.929Z,2.70
2018-12-14T20:20:06.666Z,2.70
2018-12-14T20:22:34.134Z,2.60
2018-12-14T20:25:01.559Z,2.60
2018-12-14T20:27:29.070Z,2.60
2018-12-14T20:29:56.466Z,2.60
2018-12-14T20:32:23.889Z,2.60
2018-12-14T20:34:51.390Z,2.60
2018-12-14T20:37:18.818Z,2.60
2018-12-14T20:39:46.226Z,2.70
2018-12-14T20:42:13.799Z,2.70
2018-12-14T20:44:41.370Z,2.70
2018-12-14T20:47:08.857Z,2.70
2018-12-14T20:49:36.266Z,2.60
2018-12-14T20:52:03.774Z,2.60
2018-12-14T20:54:31.282Z,2.60
2018-12-14T20:56:58.770Z,2.60
2018-12-14T20:59:26.298Z,2.60
2018-12-14T21:01:53.705Z,2.60
2018-12-14T21:04:21.186Z,2.70
2018-12-14T21:06:48.808Z,2.70
2018-12-14T21:09:16.275Z,2.60
2018-12-14T21:11:43.848Z,2.60
2018-12-14T21:14:11.250Z,2.60
2018-12-14T21:16:38.790Z,2.50
2018-12-14T21:19:06.224Z,2.50
2018-12-14T21:21:33.726Z,2.50
2018-12-14T21:24:01.132Z,2.50
2018-12-14T21:26:28.634Z,2.50
2018-12-14T21:28:56.101Z,2.50
2018-12-14T21:31:23.589Z,2.40
2018-12-14T21:33:51.181Z,2.30
2018-12-14T21:36:18.757Z,2.30
2018-12-14T21:38:46.226Z,2.20
2018-12-14T21:41:13.629Z,2.20
2018-12-14T21:43:41.030Z,2.20
2018-12-14T21:46:08.534Z,2.30
2018-12-14T21:48:36.002Z,2.30
2018-12-14T21:51:03.574Z,2.30
2018-12-14T21:53:31.066Z,2.20
2018-12-14T21:55:58.498Z,2.10
2018-12-14T21:58:25.990Z,2.10
2018-12-14T22:00:53.487Z,2.00
2018-12-14T22:03:20.903Z,2.10
2018-12-14T22:05:48.398Z,2.20
2018-12-14T22:08:15.793Z,2.30
2018-12-14T22:10:43.267Z,2.40
2018-12-14T22:13:10.711Z,2.40
2018-12-14T22:15:38.181Z,2.30
2018-12-14T22:18:05.663Z,2.30
2018-12-14T22:20:33.123Z,2.30
2018-12-14T22:23:00.605Z,2.40
2018-12-14T22:25:28.029Z,2.40
2018-12-14T22:27:55.494Z,2.50
2018-12-14T22:30:22.919Z,2.50
2018-12-14T22:32:50.466Z,2.50
2018-12-14T22:35:17.934Z,2.60
2018-12-14T22:37:45.416Z,2.60
2018-12-14T22:40:12.979Z,2.60
2018-12-14T22:42:40.397Z,2.60
2018-12-14T22:45:07.926Z,2.60
2018-12-14T22:47:35.413Z,2.60
2018-12-14T22:50:02.925Z,2.60
2018-12-14T22:52:30.431Z,2.60
2018-12-14T22:54:57.914Z,2.60
2018-12-14T22:57:25.335Z,2.50
2018-12-14T22:59:52.737Z,2.50
2018-12-14T23:02:20.211Z,2.50
2018-12-14T23:04:47.641Z,2.50
2018-12-14T23:07:15.070Z,2.50
2018-12-14T23:09:42.529Z,2.30
2018-12-14T23:12:10.097Z,2.20
2018-12-14T23:14:37.701Z,2.20
2018-12-14T23:17:05.185Z,2.20
2018-12-14T23:19:32.581Z,2.20
2018-12-14T23:22:00.014Z,2.20
2018-12-14T23:24:27.793Z,2.20
2018-12-14T23:26:55.235Z,2.20
2018-12-14T23:29:22.797Z,2.20
2018-12-14T23:31:50.274Z,2.30
2018-12-14T23:34:17.830Z,2.30
2018-12-14T23:36:45.249Z,2.40
2018-12-14T23:39:12.774Z,2.40
2018-12-14T23:41:40.246Z,2.40
2018-12-14T23:44:07.737Z,2.40
2018-12-14T23:46:35.148Z,2.40
2018-12-14T23:49:02.641Z,2.40
2018-12-14T23:51:30.133Z,2.50
2018-12-14T23:53:57.575Z,2.40
2018-12-14T23:56:24.984Z,2.40
2018-12-14T23:58:52.382Z,2.40
